sensor_id;sensor_type;location;lat;lon;timestamp;temperature;humidity
25436;DHT22;13363;52.772;-3.890;2023-04-30T00:00:04;13.40;99.90
25436;DHT22;13363;52.772;-3.890;2023-04-30T00:02:33;13.40;99.90
25436;DHT22;13363;52.772;-3.890;2023-04-30T00:04:59;13.30;99.90
25436;DHT22;13363;52.772;-3.890;2023-04-30T00:07:24;13.40;99.90
25436;DHT22;13363;52.772;-3.890;2023-04-30T00:09:51;13.30;99.90
25436;DHT22;13363;52.772;-3.890;2023-04-30T00:12:17;13.20;99.90
25436;DHT22;13363;52.772;-3.890;2023-04-30T00:14:43;13.30;99.90
25436;DHT22;13363;52.772;-3.890;2023-04-30T00:17:09;13.30;99.90
25436;DHT22;13363;52.772;-3.890;2023-04-30T00:19:34;13.40;99.90
25436;DHT22;13363;52.772;-3.890;2023-04-30T00:22:00;13.40;99.90
25436;DHT22;13363;52.772;-3.890;2023-04-30T00:24:27;13.40;99.90
25436;DHT22;13363;52.772;-3.890;2023-04-30T00:26:53;13.40;99.90
25436;DHT22;13363;52.772;-3.890;2023-04-30T00:29:18;13.30;99.90
25436;DHT22;13363;52.772;-3.890;2023-04-30T00:31:44;13.30;99.90
25436;DHT22;13363;52.772;-3.890;2023-04-30T00:34:10;13.30;99.90
25436;DHT22;13363;52.772;-3.890;2023-04-30T00:36:36;13.40;99.90
25436;DHT22;13363;52.772;-3.890;2023-04-30T00:39:02;13.20;99.90
25436;DHT22;13363;52.772;-3.890;2023-04-30T00:41:29;13.30;99.90
25436;DHT22;13363;52.772;-3.890;2023-04-30T00:43:55;13.30;99.90
25436;DHT22;13363;52.772;-3.890;2023-04-30T00:46:21;13.30;99.90
25436;DHT22;13363;52.772;-3.890;2023-04-30T00:48:47;13.30;99.90
25436;DHT22;13363;52.772;-3.890;2023-04-30T00:51:13;13.40;99.90
25436;DHT22;13363;52.772;-3.890;2023-04-30T00:53:39;13.40;99.90
25436;DHT22;13363;52.772;-3.890;2023-04-30T00:56:08;13.40;99.90
25436;DHT22;13363;52.772;-3.890;2023-04-30T00:58:34;13.30;99.90
25436;DHT22;13363;52.772;-3.890;2023-04-30T01:01:01;13.30;99.90
25436;DHT22;13363;52.772;-3.890;2023-04-30T01:03:28;13.30;99.90
25436;DHT22;13363;52.772;-3.890;2023-04-30T01:05:53;13.30;99.90
25436;DHT22;13363;52.772;-3.890;2023-04-30T01:08:19;13.30;99.90
25436;DHT22;13363;52.772;-3.890;2023-04-30T01:11:05;13.20;99.90
25436;DHT22;13363;52.772;-3.890;2023-04-30T01:13:40;13.20;99.90
25436;DHT22;13363;52.772;-3.890;2023-04-30T01:16:12;13.20;99.90
25436;DHT22;13363;52.772;-3.890;2023-04-30T01:18:48;13.20;99.90
25436;DHT22;13363;52.772;-3.890;2023-04-30T01:21:17;13.20;99.90
25436;DHT22;13363;52.772;-3.890;2023-04-30T01:29:53;13.20;99.90
25436;DHT22;13363;52.772;-3.890;2023-04-30T01:32:21;13.20;99.90
25436;DHT22;13363;52.772;-3.890;2023-04-30T01:34:46;13.20;99.90
25436;DHT22;13363;52.772;-3.890;2023-04-30T01:40:23;13.30;99.90
25436;DHT22;13363;52.772;-3.890;2023-04-30T01:43:02;13.30;99.90
25436;DHT22;13363;52.772;-3.890;2023-04-30T01:45:58;13.20;99.90
25436;DHT22;13363;52.772;-3.890;2023-04-30T01:49:01;13.20;99.90
25436;DHT22;13363;52.772;-3.890;2023-04-30T01:51:39;13.10;99.90
25436;DHT22;13363;52.772;-3.890;2023-04-30T01:54:30;13.20;99.90
25436;DHT22;13363;52.772;-3.890;2023-04-30T01:57:04;13.20;99.90
25436;DHT22;13363;52.772;-3.890;2023-04-30T01:59:34;13.10;99.90
25436;DHT22;13363;52.772;-3.890;2023-04-30T02:02:00;13.20;99.90
25436;DHT22;13363;52.772;-3.890;2023-04-30T02:04:26;13.20;99.90
25436;DHT22;13363;52.772;-3.890;2023-04-30T02:06:52;13.20;99.90
25436;DHT22;13363;52.772;-3.890;2023-04-30T02:09:18;13.30;99.90
25436;DHT22;13363;52.772;-3.890;2023-04-30T02:11:44;13.20;99.90
25436;DHT22;13363;52.772;-3.890;2023-04-30T02:14:09;13.20;99.90
25436;DHT22;13363;52.772;-3.890;2023-04-30T02:16:35;13.20;99.90
25436;DHT22;13363;52.772;-3.890;2023-04-30T02:19:01;13.20;99.90
25436;DHT22;13363;52.772;-3.890;2023-04-30T02:21:27;13.30;99.90
25436;DHT22;13363;52.772;-3.890;2023-04-30T02:23:53;13.20;99.90
25436;DHT22;13363;52.772;-3.890;2023-04-30T02:26:19;13.20;99.90
25436;DHT22;13363;52.772;-3.890;2023-04-30T02:28:46;13.10;99.90
25436;DHT22;13363;52.772;-3.890;2023-04-30T02:31:11;13.10;99.90
25436;DHT22;13363;52.772;-3.890;2023-04-30T02:33:37;13.10;99.90
25436;DHT22;13363;52.772;-3.890;2023-04-30T02:36:03;13.10;99.90
25436;DHT22;13363;52.772;-3.890;2023-04-30T02:38:29;13.10;99.90
25436;DHT22;13363;52.772;-3.890;2023-04-30T02:40:55;13.00;99.90
25436;DHT22;13363;52.772;-3.890;2023-04-30T02:43:21;12.90;99.90
25436;DHT22;13363;52.772;-3.890;2023-04-30T02:45:47;12.80;99.90
25436;DHT22;13363;52.772;-3.890;2023-04-30T02:48:12;12.80;99.90
25436;DHT22;13363;52.772;-3.890;2023-04-30T02:50:38;12.90;99.90
25436;DHT22;13363;52.772;-3.890;2023-04-30T02:53:04;12.90;99.90
25436;DHT22;13363;52.772;-3.890;2023-04-30T02:55:30;12.90;99.90
25436;DHT22;13363;52.772;-3.890;2023-04-30T02:57:57;12.90;99.90
25436;DHT22;13363;52.772;-3.890;2023-04-30T03:00:23;12.90;99.90
25436;DHT22;13363;52.772;-3.890;2023-04-30T03:02:48;12.90;99.90
25436;DHT22;13363;52.772;-3.890;2023-04-30T03:05:14;12.90;99.90
25436;DHT22;13363;52.772;-3.890;2023-04-30T03:07:41;12.90;99.90
25436;DHT22;13363;52.772;-3.890;2023-04-30T03:10:07;12.90;99.90
25436;DHT22;13363;52.772;-3.890;2023-04-30T03:12:33;13.00;99.90
25436;DHT22;13363;52.772;-3.890;2023-04-30T03:14:59;13.00;99.90
25436;DHT22;13363;52.772;-3.890;2023-04-30T03:17:25;13.00;99.90
25436;DHT22;13363;52.772;-3.890;2023-04-30T03:19:50;13.00;99.90
25436;DHT22;13363;52.772;-3.890;2023-04-30T03:22:16;12.90;99.90
25436;DHT22;13363;52.772;-3.890;2023-04-30T03:24:44;12.90;99.90
25436;DHT22;13363;52.772;-3.890;2023-04-30T03:27:10;12.80;99.90
25436;DHT22;13363;52.772;-3.890;2023-04-30T03:29:36;12.80;99.90
25436;DHT22;13363;52.772;-3.890;2023-04-30T03:32:02;12.80;99.90
25436;DHT22;13363;52.772;-3.890;2023-04-30T03:34:28;12.90;99.90
25436;DHT22;13363;52.772;-3.890;2023-04-30T03:36:56;12.90;99.90
25436;DHT22;13363;52.772;-3.890;2023-04-30T03:39:21;12.90;99.90
25436;DHT22;13363;52.772;-3.890;2023-04-30T03:41:47;12.90;99.90
25436;DHT22;13363;52.772;-3.890;2023-04-30T03:44:13;12.80;99.90
25436;DHT22;13363;52.772;-3.890;2023-04-30T03:46:43;12.90;99.90
25436;DHT22;13363;52.772;-3.890;2023-04-30T03:49:09;12.80;99.90
25436;DHT22;13363;52.772;-3.890;2023-04-30T03:51:36;12.80;99.90
25436;DHT22;13363;52.772;-3.890;2023-04-30T03:54:06;12.70;99.90
25436;DHT22;13363;52.772;-3.890;2023-04-30T03:56:35;12.80;99.90
25436;DHT22;13363;52.772;-3.890;2023-04-30T03:59:01;12.80;99.90
25436;DHT22;13363;52.772;-3.890;2023-04-30T04:01:28;12.80;99.90
25436;DHT22;13363;52.772;-3.890;2023-04-30T04:03:54;12.80;99.90
25436;DHT22;13363;52.772;-3.890;2023-04-30T04:06:20;12.80;99.90
25436;DHT22;13363;52.772;-3.890;2023-04-30T04:08:46;12.80;99.90
25436;DHT22;13363;52.772;-3.890;2023-04-30T04:11:11;12.80;99.90
25436;DHT22;13363;52.772;-3.890;2023-04-30T04:13:37;12.80;99.90
25436;DHT22;13363;52.772;-3.890;2023-04-30T04:16:03;12.80;99.90
25436;DHT22;13363;52.772;-3.890;2023-04-30T04:18:29;12.80;99.90
25436;DHT22;13363;52.772;-3.890;2023-04-30T04:20:55;12.80;99.90
25436;DHT22;13363;52.772;-3.890;2023-04-30T04:23:21;12.70;99.90
25436;DHT22;13363;52.772;-3.890;2023-04-30T04:25:47;12.70;99.90
25436;DHT22;13363;52.772;-3.890;2023-04-30T04:28:16;12.70;99.90
25436;DHT22;13363;52.772;-3.890;2023-04-30T04:30:42;12.70;99.90
25436;DHT22;13363;52.772;-3.890;2023-04-30T04:33:09;12.70;99.90
25436;DHT22;13363;52.772;-3.890;2023-04-30T04:35:37;12.70;99.90
25436;DHT22;13363;52.772;-3.890;2023-04-30T04:38:03;12.70;99.90
25436;DHT22;13363;52.772;-3.890;2023-04-30T04:40:29;12.70;99.90
25436;DHT22;13363;52.772;-3.890;2023-04-30T04:42:55;12.70;99.90
25436;DHT22;13363;52.772;-3.890;2023-04-30T04:45:21;12.70;99.90
25436;DHT22;13363;52.772;-3.890;2023-04-30T04:47:48;12.70;99.90
25436;DHT22;13363;52.772;-3.890;2023-04-30T04:50:14;12.70;99.90
25436;DHT22;13363;52.772;-3.890;2023-04-30T04:52:39;12.70;99.90
25436;DHT22;13363;52.772;-3.890;2023-04-30T04:55:06;12.80;99.90
25436;DHT22;13363;52.772;-3.890;2023-04-30T04:57:32;12.80;99.90
25436;DHT22;13363;52.772;-3.890;2023-04-30T04:59:58;12.80;99.90
25436;DHT22;13363;52.772;-3.890;2023-04-30T05:02:24;12.80;99.90
25436;DHT22;13363;52.772;-3.890;2023-04-30T05:04:50;12.70;99.90
25436;DHT22;13363;52.772;-3.890;2023-04-30T05:07:16;12.70;99.90
25436;DHT22;13363;52.772;-3.890;2023-04-30T05:09:45;12.70;99.90
25436;DHT22;13363;52.772;-3.890;2023-04-30T05:12:12;12.70;99.90
25436;DHT22;13363;52.772;-3.890;2023-04-30T05:14:38;12.70;99.90
25436;DHT22;13363;52.772;-3.890;2023-04-30T05:17:04;12.70;99.90
25436;DHT22;13363;52.772;-3.890;2023-04-30T05:19:31;12.80;99.90
25436;DHT22;13363;52.772;-3.890;2023-04-30T05:21:56;12.80;99.90
25436;DHT22;13363;52.772;-3.890;2023-04-30T05:24:23;12.70;99.90
25436;DHT22;13363;52.772;-3.890;2023-04-30T05:26:49;12.70;99.90
25436;DHT22;13363;52.772;-3.890;2023-04-30T05:29:15;12.70;99.90
25436;DHT22;13363;52.772;-3.890;2023-04-30T05:31:40;12.70;99.90
25436;DHT22;13363;52.772;-3.890;2023-04-30T05:34:06;12.70;99.90
25436;DHT22;13363;52.772;-3.890;2023-04-30T05:36:32;12.70;99.90
25436;DHT22;13363;52.772;-3.890;2023-04-30T05:38:58;12.80;99.90
25436;DHT22;13363;52.772;-3.890;2023-04-30T05:41:24;12.80;99.90
25436;DHT22;13363;52.772;-3.890;2023-04-30T05:43:50;12.80;99.90
25436;DHT22;13363;52.772;-3.890;2023-04-30T05:46:16;12.80;99.90
25436;DHT22;13363;52.772;-3.890;2023-04-30T05:51:07;12.80;99.90
25436;DHT22;13363;52.772;-3.890;2023-04-30T05:53:35;12.90;99.90
25436;DHT22;13363;52.772;-3.890;2023-04-30T05:56:01;12.80;99.90
25436;DHT22;13363;52.772;-3.890;2023-04-30T05:58:27;12.80;99.90
25436;DHT22;13363;52.772;-3.890;2023-04-30T06:00:53;12.90;99.90
25436;DHT22;13363;52.772;-3.890;2023-04-30T06:03:19;12.90;99.90
25436;DHT22;13363;52.772;-3.890;2023-04-30T06:05:46;12.90;99.90
25436;DHT22;13363;52.772;-3.890;2023-04-30T06:08:12;12.90;99.90
25436;DHT22;13363;52.772;-3.890;2023-04-30T06:10:38;12.90;99.90
25436;DHT22;13363;52.772;-3.890;2023-04-30T06:13:04;12.90;99.90
25436;DHT22;13363;52.772;-3.890;2023-04-30T06:15:30;12.90;99.90
25436;DHT22;13363;52.772;-3.890;2023-04-30T06:17:57;12.90;99.90
25436;DHT22;13363;52.772;-3.890;2023-04-30T06:20:22;12.90;99.90
25436;DHT22;13363;52.772;-3.890;2023-04-30T06:25:14;12.90;99.90
25436;DHT22;13363;52.772;-3.890;2023-04-30T06:27:40;12.90;99.90
25436;DHT22;13363;52.772;-3.890;2023-04-30T06:30:07;12.90;99.90
25436;DHT22;13363;52.772;-3.890;2023-04-30T06:34:59;12.90;99.90
25436;DHT22;13363;52.772;-3.890;2023-04-30T06:37:25;12.90;99.90
25436;DHT22;13363;52.772;-3.890;2023-04-30T06:39:51;12.90;99.90
25436;DHT22;13363;52.772;-3.890;2023-04-30T06:42:17;12.80;99.90
25436;DHT22;13363;52.772;-3.890;2023-04-30T06:44:42;12.80;99.90
25436;DHT22;13363;52.772;-3.890;2023-04-30T06:47:10;13.00;99.90
25436;DHT22;13363;52.772;-3.890;2023-04-30T06:49:35;13.00;99.90
25436;DHT22;13363;52.772;-3.890;2023-04-30T06:52:01;13.00;99.90
25436;DHT22;13363;52.772;-3.890;2023-04-30T06:54:27;13.00;99.90
25436;DHT22;13363;52.772;-3.890;2023-04-30T06:56:53;13.00;99.90
25436;DHT22;13363;52.772;-3.890;2023-04-30T06:59:19;12.90;99.90
25436;DHT22;13363;52.772;-3.890;2023-04-30T07:01:45;12.90;99.90
25436;DHT22;13363;52.772;-3.890;2023-04-30T07:04:11;12.90;99.90
25436;DHT22;13363;52.772;-3.890;2023-04-30T07:06:37;12.90;99.90
25436;DHT22;13363;52.772;-3.890;2023-04-30T07:09:03;13.00;99.90
25436;DHT22;13363;52.772;-3.890;2023-04-30T07:11:28;12.90;99.90
25436;DHT22;13363;52.772;-3.890;2023-04-30T07:13:54;13.00;99.90
25436;DHT22;13363;52.772;-3.890;2023-04-30T07:16:23;13.20;99.90
25436;DHT22;13363;52.772;-3.890;2023-04-30T07:18:49;13.00;99.90
25436;DHT22;13363;52.772;-3.890;2023-04-30T07:21:15;13.00;99.90
25436;DHT22;13363;52.772;-3.890;2023-04-30T07:23:40;13.10;99.90
25436;DHT22;13363;52.772;-3.890;2023-04-30T07:26:08;13.00;99.90
25436;DHT22;13363;52.772;-3.890;2023-04-30T07:28:34;13.00;99.90
25436;DHT22;13363;52.772;-3.890;2023-04-30T07:31:00;13.00;99.90
25436;DHT22;13363;52.772;-3.890;2023-04-30T07:33:26;13.10;99.90
25436;DHT22;13363;52.772;-3.890;2023-04-30T07:35:52;13.10;99.90
25436;DHT22;13363;52.772;-3.890;2023-04-30T07:38:20;13.00;99.90
25436;DHT22;13363;52.772;-3.890;2023-04-30T07:40:46;13.10;99.90
25436;DHT22;13363;52.772;-3.890;2023-04-30T07:43:12;13.00;99.90
25436;DHT22;13363;52.772;-3.890;2023-04-30T07:45:38;13.00;99.90
25436;DHT22;13363;52.772;-3.890;2023-04-30T07:48:04;13.10;99.90
25436;DHT22;13363;52.772;-3.890;2023-04-30T07:50:30;13.10;99.90
25436;DHT22;13363;52.772;-3.890;2023-04-30T07:52:58;13.10;99.90
25436;DHT22;13363;52.772;-3.890;2023-04-30T07:55:25;13.10;99.90
25436;DHT22;13363;52.772;-3.890;2023-04-30T07:57:51;13.10;99.90
25436;DHT22;13363;52.772;-3.890;2023-04-30T08:00:17;13.10;99.90
25436;DHT22;13363;52.772;-3.890;2023-04-30T08:02:43;13.10;99.90
25436;DHT22;13363;52.772;-3.890;2023-04-30T08:05:10;13.20;99.90
25436;DHT22;13363;52.772;-3.890;2023-04-30T08:07:39;13.20;99.90
25436;DHT22;13363;52.772;-3.890;2023-04-30T08:10:06;13.20;99.90
25436;DHT22;13363;52.772;-3.890;2023-04-30T08:12:35;13.20;99.90
25436;DHT22;13363;52.772;-3.890;2023-04-30T08:15:05;13.20;99.90
25436;DHT22;13363;52.772;-3.890;2023-04-30T08:17:32;13.20;99.90
25436;DHT22;13363;52.772;-3.890;2023-04-30T08:20:02;13.20;99.90
25436;DHT22;13363;52.772;-3.890;2023-04-30T08:22:29;13.30;99.90
25436;DHT22;13363;52.772;-3.890;2023-04-30T08:24:55;13.30;99.90
25436;DHT22;13363;52.772;-3.890;2023-04-30T08:27:21;13.20;99.90
25436;DHT22;13363;52.772;-3.890;2023-04-30T08:29:47;13.20;99.90
25436;DHT22;13363;52.772;-3.890;2023-04-30T08:32:13;13.20;99.90
25436;DHT22;13363;52.772;-3.890;2023-04-30T08:34:39;13.20;99.90
25436;DHT22;13363;52.772;-3.890;2023-04-30T08:37:06;13.20;99.90
25436;DHT22;13363;52.772;-3.890;2023-04-30T08:39:34;13.20;99.90
25436;DHT22;13363;52.772;-3.890;2023-04-30T08:42:07;13.20;99.90
25436;DHT22;13363;52.772;-3.890;2023-04-30T08:44:34;13.20;99.90
25436;DHT22;13363;52.772;-3.890;2023-04-30T08:47:06;13.20;99.90
25436;DHT22;13363;52.772;-3.890;2023-04-30T08:49:32;13.20;99.90
25436;DHT22;13363;52.772;-3.890;2023-04-30T08:52:00;13.20;99.90
25436;DHT22;13363;52.772;-3.890;2023-04-30T08:54:29;13.20;99.90
25436;DHT22;13363;52.772;-3.890;2023-04-30T08:56:55;13.20;99.90
25436;DHT22;13363;52.772;-3.890;2023-04-30T08:59:21;13.20;99.90
25436;DHT22;13363;52.772;-3.890;2023-04-30T09:01:47;13.20;99.90
25436;DHT22;13363;52.772;-3.890;2023-04-30T09:04:13;13.30;99.90
25436;DHT22;13363;52.772;-3.890;2023-04-30T09:06:39;13.30;99.90
25436;DHT22;13363;52.772;-3.890;2023-04-30T09:09:13;13.30;99.90
25436;DHT22;13363;52.772;-3.890;2023-04-30T09:11:39;13.30;99.90
25436;DHT22;13363;52.772;-3.890;2023-04-30T09:14:07;13.30;99.90
25436;DHT22;13363;52.772;-3.890;2023-04-30T09:16:47;13.30;99.90
25436;DHT22;13363;52.772;-3.890;2023-04-30T09:19:40;13.40;99.90
25436;DHT22;13363;52.772;-3.890;2023-04-30T09:22:36;13.30;99.90
25436;DHT22;13363;52.772;-3.890;2023-04-30T09:25:03;13.40;99.90
25436;DHT22;13363;52.772;-3.890;2023-04-30T09:27:30;13.50;99.90
25436;DHT22;13363;52.772;-3.890;2023-04-30T09:29:56;13.50;99.90
25436;DHT22;13363;52.772;-3.890;2023-04-30T09:32:21;13.60;99.90
25436;DHT22;13363;52.772;-3.890;2023-04-30T09:34:47;13.60;99.90
25436;DHT22;13363;52.772;-3.890;2023-04-30T09:37:13;13.70;99.90
25436;DHT22;13363;52.772;-3.890;2023-04-30T09:39:48;13.70;99.90
25436;DHT22;13363;52.772;-3.890;2023-04-30T09:42:14;13.70;99.90
25436;DHT22;13363;52.772;-3.890;2023-04-30T09:44:41;13.80;99.90
25436;DHT22;13363;52.772;-3.890;2023-04-30T09:47:15;13.80;99.90
25436;DHT22;13363;52.772;-3.890;2023-04-30T09:49:43;13.80;99.90
25436;DHT22;13363;52.772;-3.890;2023-04-30T09:52:10;13.70;99.90
25436;DHT22;13363;52.772;-3.890;2023-04-30T09:54:37;13.70;99.90
25436;DHT22;13363;52.772;-3.890;2023-04-30T09:57:03;13.70;99.90
25436;DHT22;13363;52.772;-3.890;2023-04-30T09:59:31;13.70;99.90
25436;DHT22;13363;52.772;-3.890;2023-04-30T10:02:01;13.60;99.90
25436;DHT22;13363;52.772;-3.890;2023-04-30T10:04:30;13.60;99.90
25436;DHT22;13363;52.772;-3.890;2023-04-30T10:07:01;13.60;99.90
25436;DHT22;13363;52.772;-3.890;2023-04-30T10:09:35;13.50;99.90
25436;DHT22;13363;52.772;-3.890;2023-04-30T10:12:07;13.60;99.90
25436;DHT22;13363;52.772;-3.890;2023-04-30T10:14:36;13.60;99.90
25436;DHT22;13363;52.772;-3.890;2023-04-30T10:17:13;13.60;99.90
25436;DHT22;13363;52.772;-3.890;2023-04-30T10:19:42;13.60;99.90
25436;DHT22;13363;52.772;-3.890;2023-04-30T10:22:11;13.60;99.90
25436;DHT22;13363;52.772;-3.890;2023-04-30T10:24:37;13.70;99.90
25436;DHT22;13363;52.772;-3.890;2023-04-30T10:27:03;13.60;99.90
25436;DHT22;13363;52.772;-3.890;2023-04-30T10:29:29;13.60;99.90
25436;DHT22;13363;52.772;-3.890;2023-04-30T10:31:56;13.70;99.90
25436;DHT22;13363;52.772;-3.890;2023-04-30T10:34:54;13.70;99.90
25436;DHT22;13363;52.772;-3.890;2023-04-30T10:37:41;13.50;99.90
25436;DHT22;13363;52.772;-3.890;2023-04-30T10:40:08;13.60;99.90
25436;DHT22;13363;52.772;-3.890;2023-04-30T10:42:35;13.60;99.90
25436;DHT22;13363;52.772;-3.890;2023-04-30T10:45:02;13.60;99.90
25436;DHT22;13363;52.772;-3.890;2023-04-30T10:47:28;13.70;99.90
25436;DHT22;13363;52.772;-3.890;2023-04-30T10:50:04;13.70;99.90
25436;DHT22;13363;52.772;-3.890;2023-04-30T10:52:32;14.00;99.90
25436;DHT22;13363;52.772;-3.890;2023-04-30T10:54:59;14.10;99.90
25436;DHT22;13363;52.772;-3.890;2023-04-30T10:57:29;14.10;99.90
25436;DHT22;13363;52.772;-3.890;2023-04-30T11:02:43;14.10;99.90
25436;DHT22;13363;52.772;-3.890;2023-04-30T11:05:16;14.10;99.90
25436;DHT22;13363;52.772;-3.890;2023-04-30T11:07:49;14.20;99.90
25436;DHT22;13363;52.772;-3.890;2023-04-30T11:10:17;14.10;99.90
25436;DHT22;13363;52.772;-3.890;2023-04-30T11:12:50;14.00;99.90
25436;DHT22;13363;52.772;-3.890;2023-04-30T11:15:18;13.80;99.90
25436;DHT22;13363;52.772;-3.890;2023-04-30T11:17:47;13.70;99.90
25436;DHT22;13363;52.772;-3.890;2023-04-30T11:20:21;13.70;99.90
25436;DHT22;13363;52.772;-3.890;2023-04-30T11:22:47;13.80;99.90
25436;DHT22;13363;52.772;-3.890;2023-04-30T11:25:39;13.90;99.90
25436;DHT22;13363;52.772;-3.890;2023-04-30T11:28:06;14.00;99.90
25436;DHT22;13363;52.772;-3.890;2023-04-30T11:30:32;14.00;99.90
25436;DHT22;13363;52.772;-3.890;2023-04-30T11:32:59;14.10;99.90
25436;DHT22;13363;52.772;-3.890;2023-04-30T11:35:27;14.00;99.90
25436;DHT22;13363;52.772;-3.890;2023-04-30T11:37:54;14.00;99.90
25436;DHT22;13363;52.772;-3.890;2023-04-30T11:40:21;14.10;99.90
25436;DHT22;13363;52.772;-3.890;2023-04-30T11:42:47;14.10;99.90
25436;DHT22;13363;52.772;-3.890;2023-04-30T11:45:16;14.10;99.90
25436;DHT22;13363;52.772;-3.890;2023-04-30T11:47:50;14.00;99.90
25436;DHT22;13363;52.772;-3.890;2023-04-30T11:50:24;14.10;99.90
25436;DHT22;13363;52.772;-3.890;2023-04-30T11:52:58;14.30;99.90
25436;DHT22;13363;52.772;-3.890;2023-04-30T11:55:26;14.50;99.90
25436;DHT22;13363;52.772;-3.890;2023-04-30T11:57:55;14.50;99.90
25436;DHT22;13363;52.772;-3.890;2023-04-30T12:00:28;14.70;99.90
25436;DHT22;13363;52.772;-3.890;2023-04-30T12:02:56;14.60;99.90
25436;DHT22;13363;52.772;-3.890;2023-04-30T12:05:24;14.60;99.90
25436;DHT22;13363;52.772;-3.890;2023-04-30T12:10:22;14.60;99.90
25436;DHT22;13363;52.772;-3.890;2023-04-30T12:12:49;14.60;99.90
25436;DHT22;13363;52.772;-3.890;2023-04-30T12:15:20;14.50;99.90
25436;DHT22;13363;52.772;-3.890;2023-04-30T12:17:54;14.40;99.90
25436;DHT22;13363;52.772;-3.890;2023-04-30T12:20:21;14.20;99.90
25436;DHT22;13363;52.772;-3.890;2023-04-30T12:22:47;14.10;99.90
25436;DHT22;13363;52.772;-3.890;2023-04-30T12:25:15;14.00;99.90
25436;DHT22;13363;52.772;-3.890;2023-04-30T12:27:45;14.00;99.90
25436;DHT22;13363;52.772;-3.890;2023-04-30T12:30:12;14.00;99.90
25436;DHT22;13363;52.772;-3.890;2023-04-30T12:35:05;14.10;99.90
25436;DHT22;13363;52.772;-3.890;2023-04-30T12:37:31;14.00;99.90
25436;DHT22;13363;52.772;-3.890;2023-04-30T12:39:57;13.60;99.90
25436;DHT22;13363;52.772;-3.890;2023-04-30T12:42:24;13.50;99.90
25436;DHT22;13363;52.772;-3.890;2023-04-30T12:44:50;13.40;99.90
25436;DHT22;13363;52.772;-3.890;2023-04-30T12:47:16;13.50;99.90
25436;DHT22;13363;52.772;-3.890;2023-04-30T12:49:44;13.50;99.90
25436;DHT22;13363;52.772;-3.890;2023-04-30T12:52:12;13.50;99.90
25436;DHT22;13363;52.772;-3.890;2023-04-30T12:54:40;13.70;99.90
25436;DHT22;13363;52.772;-3.890;2023-04-30T12:57:08;13.60;99.90
25436;DHT22;13363;52.772;-3.890;2023-04-30T12:59:37;13.80;99.90
25436;DHT22;13363;52.772;-3.890;2023-04-30T13:02:12;14.10;99.90
25436;DHT22;13363;52.772;-3.890;2023-04-30T13:04:39;14.10;99.90
25436;DHT22;13363;52.772;-3.890;2023-04-30T13:07:05;14.30;99.90
25436;DHT22;13363;52.772;-3.890;2023-04-30T13:09:36;14.20;99.90
25436;DHT22;13363;52.772;-3.890;2023-04-30T13:12:03;14.40;99.90
25436;DHT22;13363;52.772;-3.890;2023-04-30T13:14:32;14.30;99.90
25436;DHT22;13363;52.772;-3.890;2023-04-30T13:16:58;14.10;99.90
25436;DHT22;13363;52.772;-3.890;2023-04-30T13:19:24;14.30;99.90
25436;DHT22;13363;52.772;-3.890;2023-04-30T13:21:51;14.50;99.90
25436;DHT22;13363;52.772;-3.890;2023-04-30T13:24:17;14.70;99.90
25436;DHT22;13363;52.772;-3.890;2023-04-30T13:26:43;14.90;99.90
25436;DHT22;13363;52.772;-3.890;2023-04-30T13:29:10;15.10;99.90
25436;DHT22;13363;52.772;-3.890;2023-04-30T13:31:35;15.00;99.90
25436;DHT22;13363;52.772;-3.890;2023-04-30T13:34:01;14.80;99.90
25436;DHT22;13363;52.772;-3.890;2023-04-30T13:36:27;15.10;99.90
25436;DHT22;13363;52.772;-3.890;2023-04-30T13:38:54;15.10;99.90
25436;DHT22;13363;52.772;-3.890;2023-04-30T13:41:20;15.20;99.90
25436;DHT22;13363;52.772;-3.890;2023-04-30T13:43:47;15.30;99.90
25436;DHT22;13363;52.772;-3.890;2023-04-30T13:46:14;15.10;99.90
25436;DHT22;13363;52.772;-3.890;2023-04-30T13:48:40;15.00;99.90
25436;DHT22;13363;52.772;-3.890;2023-04-30T13:51:07;14.90;99.90
25436;DHT22;13363;52.772;-3.890;2023-04-30T13:53:34;15.20;99.90
25436;DHT22;13363;52.772;-3.890;2023-04-30T13:56:01;15.50;99.90
25436;DHT22;13363;52.772;-3.890;2023-04-30T13:58:28;15.70;99.90
25436;DHT22;13363;52.772;-3.890;2023-04-30T14:00:54;15.70;99.90
25436;DHT22;13363;52.772;-3.890;2023-04-30T14:03:19;15.70;99.90
25436;DHT22;13363;52.772;-3.890;2023-04-30T14:05:45;15.80;99.90
25436;DHT22;13363;52.772;-3.890;2023-04-30T14:08:11;15.70;99.90
25436;DHT22;13363;52.772;-3.890;2023-04-30T14:10:37;16.00;99.90
25436;DHT22;13363;52.772;-3.890;2023-04-30T14:13:03;15.70;99.90
25436;DHT22;13363;52.772;-3.890;2023-04-30T14:15:29;15.50;99.90
25436;DHT22;13363;52.772;-3.890;2023-04-30T14:17:57;15.30;99.90
25436;DHT22;13363;52.772;-3.890;2023-04-30T14:20:23;15.40;99.90
25436;DHT22;13363;52.772;-3.890;2023-04-30T14:22:52;15.40;99.90
25436;DHT22;13363;52.772;-3.890;2023-04-30T14:25:18;15.50;99.90
25436;DHT22;13363;52.772;-3.890;2023-04-30T14:27:45;15.60;99.90
25436;DHT22;13363;52.772;-3.890;2023-04-30T14:30:12;15.20;99.90
25436;DHT22;13363;52.772;-3.890;2023-04-30T14:32:38;14.90;99.90
25436;DHT22;13363;52.772;-3.890;2023-04-30T14:35:04;14.90;99.90
25436;DHT22;13363;52.772;-3.890;2023-04-30T14:37:30;15.00;99.90
25436;DHT22;13363;52.772;-3.890;2023-04-30T14:39:56;15.20;99.90
25436;DHT22;13363;52.772;-3.890;2023-04-30T14:42:23;15.00;99.90
25436;DHT22;13363;52.772;-3.890;2023-04-30T14:44:49;15.20;99.90
25436;DHT22;13363;52.772;-3.890;2023-04-30T14:47:15;15.30;99.90
25436;DHT22;13363;52.772;-3.890;2023-04-30T14:49:41;15.40;99.90
25436;DHT22;13363;52.772;-3.890;2023-04-30T14:52:06;15.70;99.90
25436;DHT22;13363;52.772;-3.890;2023-04-30T14:54:32;15.80;99.90
25436;DHT22;13363;52.772;-3.890;2023-04-30T14:56:58;16.00;99.90
25436;DHT22;13363;52.772;-3.890;2023-04-30T14:59:24;16.10;99.90
25436;DHT22;13363;52.772;-3.890;2023-04-30T15:01:50;16.50;99.90
25436;DHT22;13363;52.772;-3.890;2023-04-30T15:04:15;16.80;99.90
25436;DHT22;13363;52.772;-3.890;2023-04-30T15:06:41;16.80;99.90
25436;DHT22;13363;52.772;-3.890;2023-04-30T15:09:07;16.80;99.90
25436;DHT22;13363;52.772;-3.890;2023-04-30T15:11:33;16.80;99.90
25436;DHT22;13363;52.772;-3.890;2023-04-30T15:13:59;16.70;99.90
25436;DHT22;13363;52.772;-3.890;2023-04-30T15:16:25;16.30;99.90
25436;DHT22;13363;52.772;-3.890;2023-04-30T15:18:51;16.60;99.90
25436;DHT22;13363;52.772;-3.890;2023-04-30T15:21:17;16.50;99.90
25436;DHT22;13363;52.772;-3.890;2023-04-30T15:23:43;16.50;99.90
25436;DHT22;13363;52.772;-3.890;2023-04-30T15:26:09;16.20;99.90
25436;DHT22;13363;52.772;-3.890;2023-04-30T15:28:35;16.30;99.90
25436;DHT22;13363;52.772;-3.890;2023-04-30T15:31:02;16.40;99.90
25436;DHT22;13363;52.772;-3.890;2023-04-30T15:33:28;16.20;99.90
25436;DHT22;13363;52.772;-3.890;2023-04-30T15:35:55;16.40;99.90
25436;DHT22;13363;52.772;-3.890;2023-04-30T15:38:21;16.70;99.90
25436;DHT22;13363;52.772;-3.890;2023-04-30T15:40:47;16.50;99.90